Fletcher, North Carolina
Current Conditions -  °F | °C
As of 7:28 AM on Saturday 01 Nov 2014 (Local Time) from KAVL Reporting Station
Light Snow Light Snow  
Wind Chill: 20°   Ceiling: 2900
Heat Index: 32°   Visibility: 2mi
Dew Point: 30°   Wind: 18mph
Humidity: 92%   Direction: 340°NNW
Pressure: 29.8"   Gusts: 28mph
Location:  35.43°N, 82.5°W
Report Text: KAVL 011128Z 34016G24KT 2SM -SN BR FEW006 FEW023 OVC029 00/M01 A2980 RMK AO2 P0000 T00001011
Loading
Personal Weather Stations






























Interactive Weather Map
Tropical Storm Tracking
New forecast layout! Learn more

10-Day Weather Forecast

Advertisements
Track Severe Weather on mobile